createdAt,value
2023-09-13T00:03:07.051Z,103581.13
2023-09-13T00:07:10.217Z,103578.91
2023-09-13T00:11:13.450Z,103580.63
2023-09-13T00:15:16.564Z,103576.16
2023-09-13T00:19:20.914Z,103565.59
2023-09-13T00:23:24.081Z,103569.03
2023-09-13T00:27:27.046Z,103560.06
2023-09-13T00:31:30.191Z,103561.78
2023-09-13T00:35:35.147Z,103565.59
2023-09-13T00:39:38.127Z,103576.31
2023-09-13T00:43:41.414Z,103587.06
2023-09-13T00:47:45.095Z,103593.50
2023-09-13T00:51:49.875Z,103598.16
2023-09-13T00:55:54.337Z,103609.94
2023-09-13T00:59:57.401Z,103607.16
2023-09-13T01:04:00.908Z,103606.09
2023-09-13T01:08:05.762Z,103621.38
2023-09-13T01:12:08.849Z,103605.44
2023-09-13T01:16:15.716Z,103609.09
2023-09-13T01:20:20.793Z,103600.75
2023-09-13T01:24:41.024Z,103610.13
2023-09-13T01:28:47.802Z,103617.88
2023-09-13T01:32:53.057Z,103619.59
2023-09-13T01:36:57.786Z,103615.38
2023-09-13T01:41:05.490Z,103631.66
2023-09-13T01:45:11.820Z,103635.09
2023-09-13T01:49:15.785Z,103635.56
2023-09-13T01:53:19.116Z,103649.25
2023-09-13T01:57:22.014Z,103641.63
2023-09-13T02:01:26.608Z,103638.53
2023-09-13T02:05:29.727Z,103637.28
2023-09-13T02:09:33.039Z,103658.44
2023-09-13T02:13:36.272Z,103652.22
2023-09-13T02:17:40.831Z,103669.72
2023-09-13T02:21:43.853Z,103682.72
2023-09-13T02:25:47.033Z,103680.06
2023-09-13T02:29:50.008Z,103680.63
2023-09-13T02:33:54.850Z,103693.28
2023-09-13T02:37:58.732Z,103692.91
2023-09-13T02:42:01.875Z,103695.00
2023-09-13T02:46:04.978Z,103684.28
2023-09-13T02:50:09.905Z,103685.25
2023-09-13T02:54:12.906Z,103695.97
2023-09-13T02:58:15.935Z,103676.25
2023-09-13T03:02:20.069Z,103687.81
2023-09-13T03:06:24.748Z,103688.69
2023-09-13T03:10:28.230Z,103690.78
2023-09-13T03:14:31.667Z,103699.88
2023-09-13T03:18:35.123Z,103697.41
2023-09-13T03:22:40.026Z,103708.66
2023-09-13T03:26:43.195Z,103695.84
2023-09-13T03:30:46.751Z,103696.34
2023-09-13T03:34:49.820Z,103707.06
2023-09-13T03:38:54.505Z,103713.00
2023-09-13T03:42:59.092Z,103717.19
2023-09-13T03:47:02.493Z,103720.88
2023-09-13T03:51:06.078Z,103722.53
2023-09-13T03:55:10.945Z,103721.16
2023-09-13T03:59:14.308Z,103715.66
2023-09-13T04:03:18.330Z,103710.19
2023-09-13T04:07:21.406Z,103707.59
2023-09-13T04:11:27.361Z,103717.16
2023-09-13T04:15:30.404Z,103716.09
2023-09-13T04:19:34.224Z,103719.91
2023-09-13T04:23:37.290Z,103713.38
2023-09-13T04:27:44.348Z,103721.41
2023-09-13T04:31:49.637Z,103725.09
2023-09-13T04:35:54.379Z,103736.00
2023-09-13T04:39:57.481Z,103742.94
2023-09-13T04:44:03.182Z,103734.63
2023-09-13T04:48:07.180Z,103748.69
2023-09-13T04:52:11.786Z,103768.09
2023-09-13T04:56:15.609Z,103766.53
2023-09-13T05:00:25.308Z,103783.84
2023-09-13T05:04:28.498Z,103792.84
2023-09-13T05:08:31.507Z,103802.88
2023-09-13T05:12:34.575Z,103820.94
2023-09-13T05:16:38.947Z,103829.19
2023-09-13T05:20:41.908Z,103831.28
2023-09-13T05:24:44.933Z,103844.09
2023-09-13T05:28:48.205Z,103845.50
2023-09-13T05:32:52.621Z,103858.16
2023-09-13T05:36:55.976Z,103870.47
2023-09-13T05:40:59.032Z,103888.50
2023-09-13T05:45:01.988Z,103887.84
2023-09-13T05:49:06.865Z,103901.38
2023-09-13T05:53:09.868Z,103918.84
2023-09-13T05:57:12.847Z,103923.91
2023-09-13T06:01:17.247Z,103937.56
2023-09-13T06:05:22.373Z,103943.31
2023-09-13T06:09:25.508Z,103944.84
2023-09-13T06:13:28.566Z,103962.34
2023-09-13T06:17:31.888Z,103974.47
2023-09-13T06:21:36.577Z,103976.00
2023-09-13T06:25:41.532Z,103970.81
2023-09-13T06:29:44.746Z,103963.53
2023-09-13T06:33:48.513Z,103956.47
2023-09-13T06:37:53.703Z,103957.50
2023-09-13T06:41:57.401Z,103948.50
2023-09-13T06:50:07.099Z,103995.47
2023-09-13T06:54:14.230Z,104028.41
2023-09-13T06:58:22.064Z,104063.75
2023-09-13T07:06:32.052Z,104228.56
2023-09-13T07:10:37.060Z,104335.63
2023-09-13T07:14:40.197Z,104475.78
2023-09-13T07:18:43.515Z,104574.34
2023-09-13T07:22:46.776Z,104586.50
2023-09-13T07:26:51.144Z,104512.22
2023-09-13T07:30:54.449Z,104327.22
2023-09-13T07:34:57.704Z,104101.16
2023-09-13T07:39:01.585Z,103477.00
2023-09-13T07:43:07.317Z,102434.22
2023-09-13T07:47:10.560Z,101408.22
2023-09-13T07:51:13.769Z,101297.69
2023-09-13T07:55:16.842Z,101366.56
2023-09-13T07:59:21.837Z,101454.72
2023-09-13T08:03:26.110Z,101529.34
2023-09-13T08:07:29.555Z,101726.44
2023-09-13T08:11:32.540Z,101897.75
2023-09-13T08:15:47.317Z,102046.41
2023-09-13T08:19:52.228Z,102233.34
2023-09-13T08:23:55.224Z,102293.63
2023-09-13T08:27:58.598Z,102303.44
2023-09-13T08:32:04.147Z,102317.41
2023-09-13T08:36:08.286Z,102296.88
2023-09-13T08:40:12.401Z,102225.03
2023-09-13T08:44:15.867Z,102026.50
2023-09-13T08:48:20.794Z,101743.91
2023-09-13T08:52:24.073Z,101615.22
2023-09-13T08:56:27.294Z,101361.63
2023-09-13T09:00:31.357Z,100997.03
2023-09-13T09:04:35.930Z,100703.66
2023-09-13T09:08:41.530Z,100721.97
2023-09-13T09:12:45.659Z,100746.66
2023-09-13T09:16:50.888Z,100815.88
2023-09-13T09:20:56.428Z,100837.53
2023-09-13T09:24:59.876Z,100846.88
2023-09-13T09:29:11.760Z,100842.00
2023-09-13T09:33:15.076Z,100884.84
2023-09-13T09:37:19.489Z,100814.97
2023-09-13T09:41:32.376Z,100672.81
2023-09-13T09:45:35.435Z,100577.13
2023-09-13T09:49:38.990Z,100634.63
2023-09-13T09:53:43.383Z,100695.31
2023-09-13T09:57:47.368Z,100704.22
2023-09-13T10:01:58.214Z,100729.75
2023-09-13T10:06:04.195Z,100765.00
2023-09-13T10:10:10.709Z,100848.78
2023-09-13T10:14:26.456Z,100909.34
2023-09-13T10:18:32.312Z,100923.88
2023-09-13T10:22:37.372Z,100937.97
2023-09-13T10:26:42.805Z,100935.91
2023-09-13T10:30:50.961Z,101016.03
2023-09-13T10:34:55.166Z,101556.13
2023-09-13T10:39:05.703Z,102034.00
2023-09-13T10:43:10.803Z,102248.97
2023-09-13T10:47:14.087Z,102426.00
2023-09-13T10:51:17.924Z,103014.78
2023-09-13T10:55:21.376Z,103632.25
2023-09-13T10:59:26.708Z,104690.69
2023-09-13T11:03:30.234Z,104650.41
2023-09-13T11:07:34.108Z,104554.78
2023-09-13T11:11:37.696Z,104353.34
2023-09-13T11:15:51.124Z,104328.97
2023-09-13T11:19:54.327Z,104327.13
2023-09-13T11:24:03.782Z,104300.97
2023-09-13T11:28:08.580Z,104290.00
2023-09-13T11:32:19.725Z,104278.75
2023-09-13T11:36:25.249Z,104278.97
2023-09-13T11:40:29.417Z,104281.38
2023-09-13T11:44:34.495Z,104295.53
2023-09-13T11:48:56.715Z,104314.69
2023-09-13T11:53:10.924Z,104355.25
2023-09-13T11:57:22.906Z,104393.59
2023-09-13T12:01:29.857Z,104440.44
2023-09-13T12:05:53.252Z,104518.34
2023-09-13T12:10:00.536Z,104653.81
2023-09-13T12:14:12.836Z,104772.56
2023-09-13T12:18:20.826Z,104871.06
2023-09-13T12:22:25.240Z,104875.03
2023-09-13T12:26:28.805Z,104810.47
2023-09-13T12:30:31.920Z,104625.84
2023-09-13T12:34:35.060Z,104337.84
2023-09-13T12:38:47.427Z,104114.94
2023-09-13T12:42:50.456Z,103899.28
2023-09-13T12:46:54.157Z,103793.97
2023-09-13T12:50:57.516Z,103476.28
2023-09-13T12:55:05.448Z,103175.03
2023-09-13T12:59:08.545Z,102831.78
2023-09-13T13:03:11.734Z,102798.84
2023-09-13T13:07:22.208Z,102638.94
2023-09-13T13:11:26.851Z,102104.38
2023-09-13T13:15:34.311Z,101686.47
2023-09-13T13:23:46.131Z,101311.03
2023-09-13T13:27:50.806Z,101257.56
2023-09-13T13:31:54.003Z,101128.41
2023-09-13T13:35:58.118Z,100892.88
2023-09-13T13:40:01.210Z,100808.06
2023-09-13T13:44:05.691Z,100780.31
2023-09-13T13:48:08.752Z,100773.59
2023-09-13T13:52:11.763Z,100813.13
2023-09-13T13:56:14.770Z,100798.50
2023-09-13T14:00:19.871Z,100762.13
2023-09-13T14:04:22.985Z,100740.41
2023-09-13T14:08:26.550Z,100722.91
2023-09-13T14:12:29.641Z,100738.94
2023-09-13T14:16:34.283Z,100739.19
2023-09-13T14:20:42.422Z,100765.44
2023-09-13T14:24:45.493Z,100801.44
2023-09-13T14:28:48.473Z,100837.88
2023-09-13T14:32:53.119Z,100842.25
2023-09-13T14:36:56.143Z,100840.31
2023-09-13T14:40:59.344Z,100825.66
2023-09-13T14:45:02.311Z,100813.63
2023-09-13T14:49:06.668Z,100823.88
2023-09-13T14:53:10.271Z,100820.50
2023-09-13T14:57:13.306Z,100834.03
2023-09-13T15:01:16.407Z,100849.38
2023-09-13T15:05:21.265Z,100876.28
2023-09-13T15:09:24.465Z,100900.22
2023-09-13T15:13:27.518Z,100908.72
2023-09-13T15:17:31.564Z,100919.47
2023-09-13T15:21:36.330Z,100910.50
2023-09-13T15:25:40.022Z,100897.53
2023-09-13T15:29:43.797Z,100901.88
2023-09-13T15:33:46.852Z,100898.06
2023-09-13T15:37:52.943Z,100909.91
2023-09-13T15:41:57.805Z,100903.84
2023-09-13T15:46:01.127Z,100902.50
2023-09-13T15:50:04.383Z,100854.63
2023-09-13T15:54:08.815Z,100824.66
2023-09-13T15:58:11.787Z,100831.22
2023-09-13T16:02:14.950Z,100844.34
2023-09-13T16:06:17.998Z,100858.81
2023-09-13T16:10:23.822Z,100874.53
2023-09-13T16:14:34.634Z,100877.97
2023-09-13T16:18:38.315Z,100877.66
2023-09-13T16:22:41.465Z,100884.94
2023-09-13T16:26:45.772Z,100885.94
2023-09-13T16:30:49.052Z,100891.97
2023-09-13T16:34:52.115Z,100886.06
2023-09-13T16:38:55.086Z,100900.50
2023-09-13T16:42:59.522Z,100916.50
2023-09-13T16:47:02.636Z,100919.09
2023-09-13T16:51:05.646Z,100923.53
2023-09-13T16:55:09.117Z,100949.56
2023-09-13T16:59:14.528Z,100962.19
2023-09-13T17:03:17.637Z,100950.13
2023-09-13T17:07:20.907Z,100972.84
2023-09-13T17:11:24.396Z,100993.41
2023-09-13T17:15:28.758Z,100994.00
2023-09-13T17:19:32.072Z,100998.13
2023-09-13T17:23:35.001Z,101001.81
2023-09-13T17:27:38.064Z,101014.16
2023-09-13T17:31:42.447Z,101046.50
2023-09-13T17:35:45.554Z,101074.78
2023-09-13T17:39:48.557Z,101091.56
2023-09-13T17:43:51.624Z,101097.72
2023-09-13T17:47:56.631Z,101132.47
2023-09-13T17:51:59.728Z,101175.66
2023-09-13T17:56:04.357Z,101221.09
2023-09-13T18:00:07.742Z,101269.81
2023-09-13T18:04:12.245Z,101299.88
2023-09-13T18:08:15.640Z,101304.19
2023-09-13T18:12:18.644Z,101329.41
2023-09-13T18:16:21.600Z,101342.63
2023-09-13T18:20:28.489Z,101359.69
2023-09-13T18:24:38.780Z,101392.09
2023-09-13T18:28:42.472Z,101408.91
2023-09-13T18:32:45.571Z,101447.84
2023-09-13T18:36:50.050Z,101475.03
2023-09-13T18:40:53.370Z,101498.44
2023-09-13T18:44:56.962Z,101531.84
2023-09-13T18:49:00.749Z,101572.28
2023-09-13T18:53:05.844Z,101686.50
2023-09-13T18:57:11.156Z,101774.59
2023-09-13T19:01:14.344Z,101795.44
2023-09-13T19:05:17.600Z,101789.03
2023-09-13T19:09:22.373Z,101751.22
2023-09-13T19:13:25.426Z,101716.81
2023-09-13T19:17:28.628Z,101716.00
2023-09-13T19:21:32.878Z,101757.06
2023-09-13T19:25:37.342Z,101864.66
2023-09-13T19:29:40.606Z,101952.88
2023-09-13T19:33:43.574Z,102034.00
2023-09-13T19:37:46.637Z,102089.66
2023-09-13T19:41:51.330Z,102169.94
2023-09-13T19:45:55.525Z,102250.16
2023-09-13T19:49:58.507Z,102342.22
2023-09-13T19:54:01.486Z,102379.00
2023-09-13T19:58:07.035Z,102433.25
2023-09-13T20:02:10.093Z,102477.50
2023-09-13T20:06:14.070Z,102514.25
2023-09-13T20:10:17.160Z,102710.34
2023-09-13T20:14:21.384Z,102783.84
2023-09-13T20:18:24.419Z,102876.31
2023-09-13T20:22:27.340Z,102941.34
2023-09-13T20:26:30.398Z,102961.56
2023-09-13T20:30:34.779Z,103353.44
2023-09-13T20:34:37.825Z,103509.47
2023-09-13T20:38:40.830Z,105028.16
2023-09-13T20:42:43.893Z,104999.09
2023-09-13T20:46:48.801Z,104967.38
2023-09-13T20:50:52.283Z,104911.66
2023-09-13T20:54:55.389Z,104722.25
2023-09-13T20:58:58.450Z,104686.47
2023-09-13T21:03:03.369Z,104654.22
2023-09-13T21:07:08.557Z,104634.81
2023-09-13T21:11:11.647Z,104599.63
2023-09-13T21:15:14.876Z,104574.94
2023-09-13T21:19:20.797Z,104560.72
2023-09-13T21:23:23.908Z,104535.47
2023-09-13T21:27:27.188Z,104521.78
2023-09-13T21:31:30.239Z,104512.22
2023-09-13T21:35:34.615Z,104502.69
2023-09-13T21:39:37.674Z,104492.09
2023-09-13T21:43:40.858Z,104485.69
2023-09-13T21:47:43.850Z,104479.03
2023-09-13T21:51:48.158Z,104463.59
2023-09-13T21:55:51.118Z,104453.88
2023-09-13T21:59:54.113Z,104441.97
2023-09-13T22:03:57.234Z,104435.56
2023-09-13T22:08:02.341Z,104442.75
2023-09-13T22:12:05.681Z,104438.06
2023-09-13T22:16:10.141Z,104425.06
2023-09-13T22:20:13.497Z,104414.59
2023-09-13T22:24:17.741Z,104411.09
2023-09-13T22:28:20.726Z,104406.56
2023-09-13T22:32:23.783Z,104401.44
2023-09-13T22:36:26.782Z,104387.88
2023-09-13T22:40:31.039Z,104377.34
2023-09-13T22:44:34.158Z,104384.81
2023-09-13T22:48:37.150Z,104382.41
2023-09-13T22:52:40.161Z,104389.50
2023-09-13T22:56:44.445Z,104379.66
2023-09-13T23:00:47.478Z,104373.53
2023-09-13T23:04:50.432Z,104375.06
2023-09-13T23:08:53.665Z,104360.25
2023-09-13T23:13:00.837Z,104369.50
2023-09-13T23:17:04.123Z,104360.84
2023-09-13T23:21:07.392Z,104358.25
2023-09-13T23:25:10.859Z,104356.25
2023-09-13T23:29:15.268Z,104349.25
2023-09-13T23:33:18.241Z,104348.91
2023-09-13T23:37:23.211Z,104337.31
2023-09-13T23:41:26.186Z,104332.09
2023-09-13T23:45:31.149Z,104332.34
2023-09-13T23:49:34.791Z,104323.91
2023-09-13T23:53:38.269Z,104317.44
2023-09-13T23:57:42.701Z,104308.94
